Time;durP1;ratioP1;P1;durP2;ratioP2;P2;SDS_P1;SDS_P2;PMS_P1;PMS_P2;Temp;Humidity;BMP_temperature;BMP_pressure;BME280_temperature;BME280_humidity;BME280_pressure;Samples;Min_cycle;Max_cycle;Signal;HPM_P1;HPM_P2
2021/09/09 00:00:08;;;;;;;;;;;;;;;22.59;51.08;95511.78;1052547;28;1293;-59
2021/09/09 00:00:38;;;;;;;;;;;;;;;22.58;51.20;95518.16;1057240;28;891;-59
2021/09/09 00:01:08;;;;;;;;;;;;;;;22.59;50.99;95511.78;1056842;28;1206;-58
2021/09/09 00:01:38;;;;;;;;;;;;;;;22.60;51.21;95513.38;1053019;28;886;-57
2021/09/09 00:02:09;;;;;;;;;;;;;;;22.59;50.90;95511.78;1048306;28;1065;-56
2021/09/09 00:02:39;;;;;;;;;;;;;;;22.60;51.11;95516.00;1046295;28;1922;-58
2021/09/09 00:03:09;;;;;;;;;;;;;;;22.59;50.99;95517.06;1048309;28;1697;-57
2021/09/09 00:03:40;;;;;;;;;;;;;;;22.59;51.14;95511.78;1049250;28;759;-55
2021/09/09 00:04:10;;;;;;;;;;;;;;;22.60;50.82;95509.94;1048388;28;1484;-58
2021/09/09 00:04:40;;;;;;;;;;;;;;;22.59;50.96;95511.78;1048284;28;1154;-57
2021/09/09 00:05:11;;;;;;;;;;;;;;;22.61;50.95;95514.13;1048021;28;2069;-56
2021/09/09 00:05:41;;;;;;;;;;;;;;;22.60;51.17;95510.72;1048528;28;1057;-56
2021/09/09 00:06:11;;;;;;;;;;;;;;;22.60;50.92;95512.59;1048697;28;1237;-58
2021/09/09 00:06:42;;;;;;;;;;;;;;;22.59;50.90;95511.78;1049068;28;1064;-57
2021/09/09 00:07:12;;;;;;;;;;;;;;;22.59;50.94;95509.16;1048995;28;1047;-58
2021/09/09 00:07:42;;;;;;;;;;;;;;;22.60;51.14;95508.09;1047163;28;1854;-57
2021/09/09 00:08:13;;;;;;;;;;;;;;;22.59;51.15;95509.16;1048811;28;1094;-58
2021/09/09 00:08:43;;;;;;;;;;;;;;;22.59;51.03;95505.72;1049093;28;1056;-59
2021/09/09 00:09:13;;;;;;;;;;;;;;;22.58;51.19;95512.88;1048003;28;1868;-56
2021/09/09 00:09:43;;;;;;;;;;;;;;;22.59;50.85;95501.22;1045331;28;2048;-59
2021/09/09 00:10:14;;;;;;;;;;;;;;;22.59;51.03;95506.50;1045706;28;2154;-57
2021/09/09 00:10:44;;;;;;;;;;;;;;;22.59;50.84;95503.88;1048648;28;1045;-57
2021/09/09 00:11:15;;;;;;;;;;;;;;;22.58;50.86;95504.97;1048562;28;1197;-53
2021/09/09 00:11:46;;;;;;;;;;;;;;;22.60;50.96;95505.44;1048924;28;1119;-60
2021/09/09 00:12:16;;;;;;;;;;;;;;;22.58;51.17;95510.25;1048455;28;1163;-59
2021/09/09 00:12:46;;;;;;;;;;;;;;;22.58;50.91;95499.69;1048176;28;1170;-56
2021/09/09 00:13:17;;;;;;;;;;;;;;;22.58;51.22;95510.25;1048618;28;1370;-57
2021/09/09 00:13:47;;;;;;;;;;;;;;;22.59;51.19;95511.00;1048587;28;1146;-57
2021/09/09 00:14:18;;;;;;;;;;;;;;;22.59;51.01;95511.00;1048803;28;1202;-59
2021/09/09 00:14:48;;;;;;;;;;;;;;;22.58;50.91;95504.97;1048335;28;2061;-59
2021/09/09 00:15:18;;;;;;;;;;;;;;;22.60;51.01;95512.59;1048731;28;1472;-59
2021/09/09 00:15:49;;;;;;;;;;;;;;;22.59;50.82;95519.72;1048841;28;1142;-59
2021/09/09 00:16:19;;;;;;;;;;;;;;;22.57;51.11;95508.63;1049006;28;1106;-58
2021/09/09 00:16:49;;;;;;;;;;;;;;;22.59;50.85;95506.50;1048725;28;1275;-59
2021/09/09 00:17:20;;;;;;;;;;;;;;;22.58;50.99;95510.25;1044337;28;1160;-57
2021/09/09 00:17:50;;;;;;;;;;;;;;;22.59;50.86;95505.72;1047246;28;1627;-56
2021/09/09 00:18:20;;;;;;;;;;;;;;;22.58;50.79;95504.97;1048574;28;1158;-57
2021/09/09 00:18:51;;;;;;;;;;;;;;;22.58;51.14;95507.59;1048366;28;1036;-60
2021/09/09 00:19:21;;;;;;;;;;;;;;;22.58;50.85;95512.88;1056979;28;1190;-57
2021/09/09 00:19:51;;;;;;;;;;;;;;;22.59;51.18;95506.50;1046866;28;2061;-59
2021/09/09 00:20:23;;;;;;;;;;;;;;;22.58;51.03;95510.25;1056934;28;1097;-58
2021/09/09 00:20:53;;;;;;;;;;;;;;;22.58;51.11;95510.25;1052384;28;1205;-58
2021/09/09 00:21:24;;;;;;;;;;;;;;;22.57;51.11;95506.00;1052918;28;717;-57
2021/09/09 00:21:54;;;;;;;;;;;;;;;22.58;51.14;95507.59;1052439;28;1182;-58
2021/09/09 00:22:24;;;;;;;;;;;;;;;22.58;51.18;95507.59;1048718;28;1190;-56
2021/09/09 00:22:55;;;;;;;;;;;;;;;22.59;50.79;95506.50;1048059;28;1340;-57
2021/09/09 00:23:25;;;;;;;;;;;;;;;22.58;51.08;95510.25;1048631;28;1688;-57
2021/09/09 00:23:55;;;;;;;;;;;;;;;22.58;51.11;95506.81;1048441;28;1053;-58
2021/09/09 00:24:25;;;;;;;;;;;;;;;22.58;50.96;95507.59;1048505;28;768;-58
2021/09/09 00:24:56;;;;;;;;;;;;;;;22.57;51.08;95506.00;1047705;28;2080;-57
2021/09/09 00:25:26;;;;;;;;;;;;;;;22.56;50.88;95507.06;1048953;28;1062;-57
2021/09/09 00:25:56;;;;;;;;;;;;;;;22.57;50.85;95508.63;1048878;28;1040;-58
2021/09/09 00:26:27;;;;;;;;;;;;;;;22.57;51.16;95508.63;1048685;28;1302;-58
2021/09/09 00:26:57;;;;;;;;;;;;;;;22.57;51.19;95508.63;1048155;28;1186;-58
2021/09/09 00:27:27;;;;;;;;;;;;;;;22.56;51.01;95501.78;1048595;28;1233;-59
2021/09/09 00:27:57;;;;;;;;;;;;;;;22.57;50.85;95506.00;1048170;28;1017;-56
2021/09/09 00:28:28;;;;;;;;;;;;;;;22.57;51.13;95511.28;1043176;28;1620;-59
2021/09/09 00:28:58;;;;;;;;;;;;;;;22.57;51.20;95508.63;1046997;28;1959;-58
2021/09/09 00:29:28;;;;;;;;;;;;;;;22.57;50.91;95511.28;1049112;28;920;-59
2021/09/09 00:29:58;;;;;;;;;;;;;;;22.57;51.20;95516.56;1048666;28;1056;-58
2021/09/09 00:30:29;;;;;;;;;;;;;;;22.56;51.12;95501.00;1045664;28;2017;-57
2021/09/09 00:30:59;;;;;;;;;;;;;;;22.57;50.91;95516.56;1048640;28;886;-58
2021/09/09 00:31:29;;;;;;;;;;;;;;;22.58;51.01;95520.00;1048931;28;863;-57
2021/09/09 00:32:00;;;;;;;;;;;;;;;22.57;51.13;95508.63;1047680;28;2111;-58
2021/09/09 00:32:30;;;;;;;;;;;;;;;22.56;50.96;95517.66;1048311;28;1548;-58
2021/09/09 00:33:01;;;;;;;;;;;;;;;22.56;51.08;95515.00;1047335;28;1489;-58
2021/09/09 00:33:31;;;;;;;;;;;;;;;22.56;51.08;95512.38;1048461;28;1252;-59
2021/09/09 00:34:01;;;;;;;;;;;;;;;22.57;50.88;95516.56;1044150;28;1509;-59
2021/09/09 00:34:31;;;;;;;;;;;;;;;22.57;51.11;95511.28;1044417;28;1010;-58
2021/09/09 00:35:02;;;;;;;;;;;;;;;22.56;51.18;95511.56;1047687;28;1308;-57
2021/09/09 00:35:32;;;;;;;;;;;;;;;22.57;50.87;95508.63;1047583;28;2174;-58
2021/09/09 00:36:03;;;;;;;;;;;;;;;22.57;51.02;95519.19;1048682;28;1081;-57
2021/09/09 00:36:33;;;;;;;;;;;;;;;22.56;50.98;95515.00;1048987;28;1013;-54
2021/09/09 00:37:03;;;;;;;;;;;;;;;22.56;50.94;95522.94;1048492;28;1104;-56
2021/09/09 00:37:34;;;;;;;;;;;;;;;22.56;51.05;95515.00;1048697;28;1086;-58
2021/09/09 00:38:05;;;;;;;;;;;;;;;22.57;50.95;95513.13;1048775;28;1020;-57
2021/09/09 00:38:35;;;;;;;;;;;;;;;22.57;50.90;95510.47;1048987;28;1154;-54
2021/09/09 00:39:05;;;;;;;;;;;;;;;22.56;50.88;95517.66;1047312;28;1721;-57
2021/09/09 00:39:35;;;;;;;;;;;;;;;22.57;50.84;95515.75;1049146;28;1021;-56
2021/09/09 00:40:06;;;;;;;;;;;;;;;22.56;50.90;95507.06;1048707;28;1147;-59
2021/09/09 00:40:36;;;;;;;;;;;;;;;22.58;50.86;95509.44;1047796;28;2236;-58
2021/09/09 00:41:07;;;;;;;;;;;;;;;22.57;51.07;95508.63;1047631;28;2016;-59
2021/09/09 00:41:37;;;;;;;;;;;;;;;22.57;51.11;95511.28;1049032;28;1026;-54
2021/09/09 00:42:07;;;;;;;;;;;;;;;22.56;51.09;95515.00;1049581;28;1139;-58
2021/09/09 00:42:38;;;;;;;;;;;;;;;22.56;51.10;95515.00;1051747;28;1023;-59
2021/09/09 00:43:09;;;;;;;;;;;;;;;22.55;51.03;95516.06;1048540;28;1381;-58
2021/09/09 00:43:39;;;;;;;;;;;;;;;22.55;50.95;95507.34;1048002;28;2040;-58
2021/09/09 00:44:22;;;;;;;;;;;;;;;22.57;51.21;95516.56;1048375;28;1140;-57
2021/09/09 00:44:52;;;;;;;;;;;;;;;22.57;50.92;95518.41;1048578;28;1073;-56
2021/09/09 00:45:22;;;;;;;;;;;;;;;22.57;51.21;95513.91;1048054;28;1977;-58
2021/09/09 00:45:53;;;;;;;;;;;;;;;22.57;51.05;95513.91;1045311;28;2062;-57
2021/09/09 00:46:24;;;;;;;;;;;;;;;22.57;51.16;95508.63;1044507;28;1118;-55
2021/09/09 00:47:04;;;;;;;;;;;;;;;22.57;51.09;95519.19;1044323;28;1163;-56
2021/09/09 00:47:34;;;;;;;;;;;;;;;22.56;50.91;95509.72;1044063;28;1922;-57
2021/09/09 00:48:04;;;;;;;;;;;;;;;22.56;50.83;95517.66;1048434;28;1084;-58
2021/09/09 00:48:35;;;;;;;;;;;;;;;22.56;51.27;95515.00;1048902;28;1166;-58
2021/09/09 00:49:05;;;;;;;;;;;;;;;22.57;50.90;95516.56;1048720;28;1092;-59
2021/09/09 00:49:36;;;;;;;;;;;;;;;22.58;51.25;95518.16;1048808;28;767;-59
2021/09/09 00:50:06;;;;;;;;;;;;;;;22.57;50.94;95515.75;1048346;28;1139;-57
2021/09/09 00:50:37;;;;;;;;;;;;;;;22.57;51.01;95506.00;1047670;28;2034;-57
2021/09/09 00:51:07;;;;;;;;;;;;;;;22.57;51.05;95513.13;1048374;28;1282;-58
2021/09/09 00:51:37;;;;;;;;;;;;;;;22.57;51.12;95506.00;1048321;28;1198;-57
2021/09/09 00:52:08;;;;;;;;;;;;;;;22.56;51.12;95515.00;1048758;28;1088;-57
2021/09/09 00:52:39;;;;;;;;;;;;;;;22.58;51.25;95512.09;1048224;28;1209;-57
2021/09/09 00:53:10;;;;;;;;;;;;;;;22.57;51.28;95516.56;1047365;28;2093;-57
2021/09/09 00:53:42;;;;;;;;;;;;;;;22.56;51.21;95517.66;1044119;28;1545;-57
2021/09/09 00:54:12;;;;;;;;;;;;;;;22.57;51.29;95510.47;1044328;28;1135;-57
2021/09/09 00:54:43;;;;;;;;;;;;;;;22.57;50.94;95508.63;1044174;28;1089;-56
2021/09/09 00:55:14;;;;;;;;;;;;;;;22.57;50.99;95518.41;1040643;28;1163;-58
2021/09/09 00:55:44;;;;;;;;;;;;;;;22.58;50.88;95520.00;1044955;28;2066;-55
2021/09/09 00:56:14;;;;;;;;;;;;;;;22.56;51.22;95509.72;1044338;28;1464;-55
2021/09/09 00:56:45;;;;;;;;;;;;;;;22.58;51.06;95512.09;1047775;28;1719;-58
2021/09/09 00:57:16;;;;;;;;;;;;;;;22.58;50.91;95520.00;1051945;28;1335;-56
2021/09/09 00:57:47;;;;;;;;;;;;;;;22.56;50.96;95509.72;1048054;28;1076;-56
2021/09/09 00:58:17;;;;;;;;;;;;;;;22.58;50.93;95514.72;1047809;28;1717;-57
2021/09/09 00:58:48;;;;;;;;;;;;;;;22.57;50.87;95511.28;1041944;28;950;-59
2021/09/09 00:59:19;;;;;;;;;;;;;;;22.56;50.86;95515.00;1048412;28;1170;-57
2021/09/09 00:59:49;;;;;;;;;;;;;;;22.57;51.21;95508.63;1048535;28;1225;-59
2021/09/09 01:00:19;;;;;;;;;;;;;;;22.57;51.07;95511.28;1044382;28;1243;-56
2021/09/09 01:00:49;;;;;;;;;;;;;;;22.55;51.16;95513.41;1042805;28;2264;-59
2021/09/09 01:01:20;;;;;;;;;;;;;;;22.56;50.94;95517.66;1044232;28;1151;-57
2021/09/09 01:01:50;;;;;;;;;;;;;;;22.57;50.88;95521.84;1044203;28;1101;-59
2021/09/09 01:02:20;;;;;;;;;;;;;;;22.56;51.08;95517.66;1048679;28;1174;-59
2021/09/09 01:02:51;;;;;;;;;;;;;;;22.55;50.99;95508.13;1045912;28;1725;-57
2021/09/09 01:03:21;;;;;;;;;;;;;;;22.56;50.88;95512.38;1048547;28;1266;-57
2021/09/09 01:03:51;;;;;;;;;;;;;;;22.55;51.16;95516.06;1048704;28;1084;-58
2021/09/09 01:04:22;;;;;;;;;;;;;;;22.56;51.16;95514.22;1048418;28;1189;-58
2021/09/09 01:04:53;;;;;;;;;;;;;;;22.55;51.11;95515.28;1048415;28;1081;-58
2021/09/09 01:05:23;;;;;;;;;;;;;;;22.55;51.15;95508.13;1044379;28;1969;-55
2021/09/09 01:05:54;;;;;;;;;;;;;;;22.56;51.07;95509.72;1045746;28;2115;-57
2021/09/09 01:06:24;;;;;;;;;;;;;;;22.55;51.08;95505.50;1044491;28;1324;-57
2021/09/09 01:06:55;;;;;;;;;;;;;;;22.54;50.87;95509.22;1048405;28;1152;-57
2021/09/09 01:07:25;;;;;;;;;;;;;;;22.55;50.96;95504.72;1040090;28;1487;-57
2021/09/09 01:08:05;;;;;;;;;;;;;;;22.55;50.87;95515.28;1039939;28;2125;-59
2021/09/09 01:08:41;;;;;;;;;;;;;;;22.56;51.10;95506.28;1040413;28;971;-55
2021/09/09 01:09:14;;;;;;;;;;;;;;;22.56;51.13;95503.66;1044247;28;2126;-57
2021/09/09 01:10:04;;;;;;;;;;;;;;;22.56;50.81;95508.94;1051077;28;1510;-58
2021/09/09 01:10:35;;;;;;;;;;;;;;;22.56;50.96;95504.44;1052687;28;854;-58
2021/09/09 01:11:20;;;;;;;;;;;;;;;22.56;50.80;95507.06;1047245;28;1307;-59
2021/09/09 01:12:10;;;;;;;;;;;;;;;22.55;50.94;95499.41;1043815;28;1192;-56
2021/09/09 01:13:00;;;;;;;;;;;;;;;22.56;51.15;95504.44;1046708;28;1870;-59
2021/09/09 01:13:31;;;;;;;;;;;;;;;22.54;50.80;95503.94;1048795;28;1229;-59
2021/09/09 01:14:05;;;;;;;;;;;;;;;22.54;51.26;95503.94;1048613;28;1151;-58
2021/09/09 01:14:35;;;;;;;;;;;;;;;22.55;51.10;95505.50;1052222;28;1505;-57
2021/09/09 01:15:06;;;;;;;;;;;;;;;22.55;51.09;95504.72;1048407;28;1356;-58
2021/09/09 01:15:56;;;;;;;;;;;;;;;22.55;51.10;95505.50;1044214;28;2196;-60
2021/09/09 01:16:47;;;;;;;;;;;;;;;22.55;50.80;95505.50;1048347;28;1036;-59
2021/09/09 01:17:37;;;;;;;;;;;;;;;22.55;50.95;95504.72;1043192;28;1753;-57
2021/09/09 01:18:08;;;;;;;;;;;;;;;22.54;51.21;95498.66;1048389;28;1088;-57
2021/09/09 01:18:39;;;;;;;;;;;;;;;22.54;50.86;95503.94;1048760;28;748;-57
2021/09/09 01:19:09;;;;;;;;;;;;;;;22.56;50.90;95507.06;1048495;28;1103;-57
2021/09/09 01:19:41;;;;;;;;;;;;;;;22.56;50.98;95509.72;1048763;28;1075;-59
2021/09/09 01:20:13;;;;;;;;;;;;;;;22.57;51.00;95515.75;1048331;28;1202;-56
2021/09/09 01:21:03;;;;;;;;;;;;;;;22.55;50.94;95507.34;1047021;28;2112;-56
2021/09/09 01:21:53;;;;;;;;;;;;;;;22.56;51.22;95506.28;1046643;28;1730;-56
2021/09/09 01:22:24;;;;;;;;;;;;;;;22.55;51.22;95502.84;1048703;28;1142;-55
2021/09/09 01:23:00;;;;;;;;;;;;;;;22.56;50.99;95506.28;1048196;28;1067;-58
2021/09/09 01:23:35;;;;;;;;;;;;;;;22.57;50.94;95508.63;1048926;28;808;-57
2021/09/09 01:24:15;;;;;;;;;;;;;;;22.56;50.79;95512.38;1048173;28;1093;-59
2021/09/09 01:24:47;;;;;;;;;;;;;;;22.55;50.85;95513.41;1048038;28;1422;-59
2021/09/09 01:25:37;;;;;;;;;;;;;;;22.56;50.86;95507.06;1044128;28;1280;-59
2021/09/09 01:26:28;;;;;;;;;;;;;;;22.55;50.91;95516.06;1046883;28;1047;-57
2021/09/09 01:27:05;;;;;;;;;;;;;;;22.55;51.15;95508.13;1045908;28;1611;-59
2021/09/09 01:27:35;;;;;;;;;;;;;;;22.56;50.92;95506.28;1049867;28;1206;-58
2021/09/09 01:28:06;;;;;;;;;;;;;;;22.55;51.21;95502.06;1052446;28;1033;-57
2021/09/09 01:28:36;;;;;;;;;;;;;;;22.55;51.21;95504.72;1047916;28;1909;-57
2021/09/09 01:29:06;;;;;;;;;;;;;;;22.54;51.04;95503.94;1048094;28;1151;-58
2021/09/09 01:29:37;;;;;;;;;;;;;;;22.54;51.04;95514.50;1044399;28;1025;-57
2021/09/09 01:30:08;;;;;;;;;;;;;;;22.55;50.88;95507.34;1044384;28;1085;-58
2021/09/09 01:30:38;;;;;;;;;;;;;;;22.54;51.19;95509.22;1044212;28;1143;-58
2021/09/09 01:31:09;;;;;;;;;;;;;;;22.54;51.00;95506.59;1038311;28;2301;-59
2021/09/09 01:31:39;;;;;;;;;;;;;;;22.54;51.09;95509.22;1044409;28;907;-59
2021/09/09 01:32:09;;;;;;;;;;;;;;;22.54;50.95;95511.88;1039950;28;1105;-58
2021/09/09 01:32:40;;;;;;;;;;;;;;;22.55;50.93;95512.63;1042993;28;1218;-57
2021/09/09 01:33:10;;;;;;;;;;;;;;;22.55;51.18;95515.28;1044017;28;1480;-57
2021/09/09 01:33:40;;;;;;;;;;;;;;;22.55;50.85;95512.63;1043561;28;2147;-59
2021/09/09 01:34:11;;;;;;;;;;;;;;;22.54;51.08;95506.59;1048127;28;1493;-57
2021/09/09 01:34:41;;;;;;;;;;;;;;;22.54;51.09;95509.22;1048189;28;1068;-58
2021/09/09 01:35:11;;;;;;;;;;;;;;;22.55;50.77;95508.13;1048491;28;1190;-57
2021/09/09 01:35:41;;;;;;;;;;;;;;;22.55;50.87;95510.00;1048561;28;1225;-60
2021/09/09 01:36:12;;;;;;;;;;;;;;;22.54;51.07;95508.44;1047867;28;2051;-57
2021/09/09 01:36:42;;;;;;;;;;;;;;;22.54;50.86;95514.50;1045838;28;1908;-58
2021/09/09 01:37:13;;;;;;;;;;;;;;;22.54;51.00;95514.50;1048528;28;1137;-57
2021/09/09 01:37:43;;;;;;;;;;;;;;;22.55;50.81;95521.34;1048430;28;1185;-55
2021/09/09 01:38:22;;;;;;;;;;;;;;;22.54;51.23;95517.16;1049040;28;1143;-58
2021/09/09 01:38:53;;;;;;;;;;;;;;;22.53;50.82;95512.94;1048443;28;1352;-56
2021/09/09 01:39:23;;;;;;;;;;;;;;;22.55;50.90;95515.28;1048240;28;1020;-57
2021/09/09 01:39:55;;;;;;;;;;;;;;;22.53;50.84;95514.78;1048349;28;1084;-58
2021/09/09 01:40:26;;;;;;;;;;;;;;;22.53;51.09;95515.56;1044254;28;1159;-56
2021/09/09 01:40:56;;;;;;;;;;;;;;;22.53;51.16;95512.94;1049957;28;2124;-56
2021/09/09 01:41:27;;;;;;;;;;;;;;;22.54;51.18;95519.78;1052438;28;819;-59
2021/09/09 01:41:57;;;;;;;;;;;;;;;22.54;51.08;95516.34;1052542;28;1158;-57
2021/09/09 01:42:28;;;;;;;;;;;;;;;22.54;51.10;95513.72;1060619;28;1260;-56
2021/09/09 01:42:58;;;;;;;;;;;;;;;22.54;51.04;95524.28;1048342;28;1412;-58
2021/09/09 01:43:29;;;;;;;;;;;;;;;22.53;51.00;95517.41;1048464;28;1286;-60
2021/09/09 01:44:00;;;;;;;;;;;;;;;22.52;50.95;95519.28;1048357;28;1089;-57
2021/09/09 01:44:30;;;;;;;;;;;;;;;22.53;51.09;95522.69;1048308;28;1230;-59
2021/09/09 01:45:00;;;;;;;;;;;;;;;22.53;50.82;95512.13;1044010;28;1902;-56
2021/09/09 01:45:31;;;;;;;;;;;;;;;22.53;51.10;95512.94;1041255;28;1983;-55
2021/09/09 01:46:01;;;;;;;;;;;;;;;22.52;50.86;95511.34;1046023;28;2127;-58
2021/09/09 01:46:32;;;;;;;;;;;;;;;22.53;50.82;95514.78;1048362;28;1174;-57
2021/09/09 01:47:02;;;;;;;;;;;;;;;22.53;51.12;95522.69;1048668;28;1080;-58
2021/09/09 01:47:33;;;;;;;;;;;;;;;22.53;51.05;95520.84;1047859;28;1142;-59
2021/09/09 01:48:03;;;;;;;;;;;;;;;22.52;51.13;95514.00;1047742;28;1144;-57
2021/09/09 01:48:33;;;;;;;;;;;;;;;22.52;50.89;95518.50;1044252;28;1301;-59
2021/09/09 01:49:04;;;;;;;;;;;;;;;22.53;51.02;95518.22;1044143;28;1085;-57
2021/09/09 01:49:34;;;;;;;;;;;;;;;22.52;51.03;95516.63;1040309;28;1179;-57
2021/09/09 01:50:05;;;;;;;;;;;;;;;22.53;51.18;95522.69;1048154;28;1136;-58
2021/09/09 01:50:35;;;;;;;;;;;;;;;22.52;51.10;95516.63;1048431;28;1022;-59
2021/09/09 01:51:06;;;;;;;;;;;;;;;22.53;50.81;95514.78;1046946;28;2127;-56
2021/09/09 01:51:36;;;;;;;;;;;;;;;22.53;51.11;95517.41;1049618;28;1206;-59
2021/09/09 01:52:07;;;;;;;;;;;;;;;22.52;51.08;95516.63;1048082;28;1084;-54
2021/09/09 01:52:37;;;;;;;;;;;;;;;22.53;50.87;95517.41;1048460;28;1161;-58
2021/09/09 01:53:07;;;;;;;;;;;;;;;22.53;51.14;95518.22;1048426;28;1296;-58
2021/09/09 01:53:38;;;;;;;;;;;;;;;22.53;51.03;95523.50;1044527;28;1878;-59
2021/09/09 01:54:08;;;;;;;;;;;;;;;22.52;50.96;95514.00;1048005;28;1036;-55
2021/09/09 01:54:38;;;;;;;;;;;;;;;22.53;51.18;95526.13;1048719;28;757;-56
2021/09/09 01:55:09;;;;;;;;;;;;;;;22.53;50.99;95523.50;1048432;28;1120;-58
2021/09/09 01:55:39;;;;;;;;;;;;;;;22.52;51.12;95521.16;1048812;28;1025;-58
2021/09/09 01:56:09;;;;;;;;;;;;;;;22.51;50.98;95515.06;1047854;28;1678;-59
2021/09/09 01:56:39;;;;;;;;;;;;;;;22.52;50.89;95521.91;1047590;28;2582;-58
2021/09/09 01:57:10;;;;;;;;;;;;;;;22.52;51.18;95521.91;1044082;28;1243;-57
2021/09/09 01:57:41;;;;;;;;;;;;;;;22.51;51.02;95520.34;1043800;28;1022;-59
2021/09/09 01:58:11;;;;;;;;;;;;;;;22.52;51.05;95516.63;1048100;28;1151;-55
2021/09/09 01:58:42;;;;;;;;;;;;;;;22.51;51.16;95514.28;1045389;28;1904;-58
2021/09/09 01:59:12;;;;;;;;;;;;;;;22.52;50.82;95515.88;1048760;28;1233;-59
2021/09/09 01:59:42;;;;;;;;;;;;;;;22.51;50.85;95520.34;1046675;28;1876;-57
2021/09/09 02:00:13;;;;;;;;;;;;;;;22.52;50.89;95521.16;1047401;28;2009;-57
2021/09/09 02:00:43;;;;;;;;;;;;;;;22.52;51.26;95516.63;1048397;28;1041;-55
2021/09/09 02:01:14;;;;;;;;;;;;;;;22.51;51.13;95515.06;1048296;28;1198;-55
2021/09/09 02:01:44;;;;;;;;;;;;;;;22.52;51.00;95515.88;1047561;28;2223;-60
2021/09/09 02:02:15;;;;;;;;;;;;;;;22.52;50.97;95511.34;1048137;28;1173;-58
2021/09/09 02:02:45;;;;;;;;;;;;;;;22.53;50.94;95514.78;1046703;28;1677;-56
2021/09/09 02:03:15;;;;;;;;;;;;;;;22.52;51.06;95516.63;1047494;28;1398;-56
2021/09/09 02:03:46;;;;;;;;;;;;;;;22.52;51.05;95516.63;1048655;28;1060;-59
2021/09/09 02:04:16;;;;;;;;;;;;;;;22.52;51.06;95521.16;1048365;28;1146;-59
2021/09/09 02:04:46;;;;;;;;;;;;;;;22.51;51.04;95523.00;1048095;28;1232;-58
2021/09/09 02:05:16;;;;;;;;;;;;;;;22.52;51.22;95519.28;1048345;28;1902;-58
2021/09/09 02:05:47;;;;;;;;;;;;;;;22.52;50.81;95526.44;1048593;28;1073;-58
2021/09/09 02:06:17;;;;;;;;;;;;;;;22.52;50.88;95524.56;1048599;28;1217;-57
2021/09/09 02:06:47;;;;;;;;;;;;;;;22.53;50.94;95520.06;1047543;28;2126;-56
2021/09/09 02:07:17;;;;;;;;;;;;;;;22.52;51.04;95514.00;1048671;28;1194;-57
2021/09/09 02:07:48;;;;;;;;;;;;;;;22.52;50.88;95521.16;1048281;28;1153;-55
2021/09/09 02:08:18;;;;;;;;;;;;;;;22.52;50.85;95521.16;1047178;28;1663;-58
2021/09/09 02:08:48;;;;;;;;;;;;;;;22.52;50.89;95515.88;1048123;28;1358;-57
2021/09/09 02:09:19;;;;;;;;;;;;;;;22.52;50.87;95515.88;1048193;28;1155;-57
2021/09/09 02:09:49;;;;;;;;;;;;;;;22.51;51.12;95517.72;1048203;28;1060;-57
2021/09/09 02:10:20;;;;;;;;;;;;;;;22.52;51.12;95518.50;1052465;28;1186;-59
2021/09/09 02:10:50;;;;;;;;;;;;;;;22.52;50.94;95519.28;1052244;28;1131;-53
2021/09/09 02:11:21;;;;;;;;;;;;;;;22.51;51.03;95523.00;1052514;28;1222;-58
2021/09/09 02:11:51;;;;;;;;;;;;;;;22.51;51.16;95517.72;1051441;28;1996;-58
2021/09/09 02:12:21;;;;;;;;;;;;;;;22.52;50.90;95515.88;1048150;28;1155;-59
2021/09/09 02:12:52;;;;;;;;;;;;;;;22.51;50.83;95520.34;1047666;28;1092;-58
2021/09/09 02:13:22;;;;;;;;;;;;;;;22.50;51.04;95518.78;1048182;28;1233;-56
2021/09/09 02:13:52;;;;;;;;;;;;;;;22.51;50.83;95519.56;1048248;28;1112;-58
2021/09/09 02:14:23;;;;;;;;;;;;;;;22.50;51.03;95516.13;1048005;28;1163;-55
2021/09/09 02:14:53;;;;;;;;;;;;;;;22.52;51.03;95515.88;1048409;28;1084;-57
2021/09/09 02:15:23;;;;;;;;;;;;;;;22.50;51.09;95513.50;1048424;28;1391;-57
2021/09/09 02:15:54;;;;;;;;;;;;;;;22.50;50.92;95513.50;1048137;28;1151;-55
2021/09/09 02:16:24;;;;;;;;;;;;;;;22.50;51.20;95512.75;1046146;28;2101;-56
2021/09/09 02:16:54;;;;;;;;;;;;;;;22.50;51.10;95516.13;1045698;28;2240;-56
2021/09/09 02:17:25;;;;;;;;;;;;;;;22.50;51.06;95518.78;1046836;28;1608;-58
2021/09/09 02:17:55;;;;;;;;;;;;;;;22.51;50.81;95515.06;1045253;28;1140;-56
2021/09/09 02:18:26;;;;;;;;;;;;;;;22.50;50.76;95516.13;1048679;28;1146;-56
2021/09/09 02:18:56;;;;;;;;;;;;;;;22.51;50.96;95516.94;1048317;28;1076;-55
2021/09/09 02:19:26;;;;;;;;;;;;;;;22.50;51.11;95516.13;1048835;28;725;-57
2021/09/09 02:19:56;;;;;;;;;;;;;;;22.50;50.75;95516.13;1056436;28;1088;-56
2021/09/09 02:20:29;;;;;;;;;;;;;;;22.49;50.86;95517.22;1056948;28;1021;-57
2021/09/09 02:20:59;;;;;;;;;;;;;;;22.50;50.96;95515.38;1056646;28;1049;-57
2021/09/09 02:21:30;;;;;;;;;;;;;;;22.50;51.02;95524.06;1056397;28;795;-55
2021/09/09 02:22:00;;;;;;;;;;;;;;;22.50;50.78;95521.41;1047600;28;2200;-58
2021/09/09 02:22:30;;;;;;;;;;;;;;;22.49;51.13;95517.22;1048578;28;835;-59
2021/09/09 02:23:01;;;;;;;;;;;;;;;22.51;50.84;95524.84;1048383;28;1055;-58
2021/09/09 02:23:31;;;;;;;;;;;;;;;22.50;51.11;95513.50;1048780;28;1240;-58
2021/09/09 02:24:02;;;;;;;;;;;;;;;22.50;50.83;95521.41;1048540;28;1040;-59
2021/09/09 02:24:32;;;;;;;;;;;;;;;22.51;51.14;95524.84;1048692;28;825;-58
2021/09/09 02:25:02;;;;;;;;;;;;;;;22.51;50.77;95519.56;1047887;28;1971;-58
2021/09/09 02:25:33;;;;;;;;;;;;;;;22.51;51.17;95519.56;1048413;28;1320;-56
2021/09/09 02:26:03;;;;;;;;;;;;;;;22.49;50.92;95517.22;1047654;28;1630;-58
2021/09/09 02:26:33;;;;;;;;;;;;;;;22.49;51.13;95522.50;1047893;28;2045;-59
2021/09/09 02:27:04;;;;;;;;;;;;;;;22.51;51.08;95524.84;1048070;28;1551;-59
2021/09/09 02:27:34;;;;;;;;;;;;;;;22.51;50.98;95519.56;1048427;28;838;-58
2021/09/09 02:28:05;;;;;;;;;;;;;;;22.50;50.90;95520.66;1048444;28;1009;-60
2021/09/09 02:28:35;;;;;;;;;;;;;;;22.49;50.83;95519.88;1048070;28;1616;-59
2021/09/09 02:29:05;;;;;;;;;;;;;;;22.50;51.09;95513.50;1049051;28;1139;-59
2021/09/09 02:29:36;;;;;;;;;;;;;;;22.49;50.96;95517.22;1048997;28;1093;-60
2021/09/09 02:30:06;;;;;;;;;;;;;;;22.51;51.05;95519.56;1048825;28;1044;-60
2021/09/09 02:30:37;;;;;;;;;;;;;;;22.50;50.84;95521.41;1049399;28;1134;-60
2021/09/09 02:31:07;;;;;;;;;;;;;;;22.50;50.99;95518.78;1049411;28;1120;-59
2021/09/09 02:31:37;;;;;;;;;;;;;;;22.50;51.06;95512.75;1048537;28;2190;-58
2021/09/09 02:32:08;;;;;;;;;;;;;;;22.50;51.17;95523.31;1048756;28;1706;-60
2021/09/09 02:32:38;;;;;;;;;;;;;;;22.48;50.89;95515.66;1047877;28;926;-60
2021/09/09 02:33:09;;;;;;;;;;;;;;;22.50;51.15;95523.31;1048942;28;1300;-59
2021/09/09 02:33:39;;;;;;;;;;;;;;;22.49;51.01;95521.72;1048815;28;1155;-60
2021/09/09 02:34:10;;;;;;;;;;;;;;;22.49;50.86;95521.72;1049244;28;1068;-60
2021/09/09 02:34:40;;;;;;;;;;;;;;;22.49;50.86;95527.78;1049162;28;1158;-60
2021/09/09 02:35:10;;;;;;;;;;;;;;;22.49;50.90;95522.50;1049155;28;1148;-58
2021/09/09 02:35:40;;;;;;;;;;;;;;;22.49;50.78;95519.88;1049219;28;1029;-59
2021/09/09 02:36:11;;;;;;;;;;;;;;;22.49;50.82;95525.16;1047615;28;1619;-60
2021/09/09 02:36:41;;;;;;;;;;;;;;;22.49;50.81;95517.22;1045702;28;1994;-60
2021/09/09 02:37:11;;;;;;;;;;;;;;;22.50;50.88;95523.31;1047772;28;1126;-59
2021/09/09 02:37:42;;;;;;;;;;;;;;;22.49;50.97;95517.22;1048743;28;1064;-61
2021/09/09 02:38:12;;;;;;;;;;;;;;;22.48;50.89;95513.00;1049466;28;1122;-60
2021/09/09 02:38:42;;;;;;;;;;;;;;;22.49;50.83;95513.78;1049277;28;1177;-60
2021/09/09 02:39:13;;;;;;;;;;;;;;;22.49;50.78;95513.78;1048474;28;1768;-59
2021/09/09 02:39:46;;;;;;;;;;;;;;;22.49;50.80;95521.72;1048838;28;1069;-59
2021/09/09 02:40:17;;;;;;;;;;;;;;;22.49;50.72;95517.22;1048885;28;1155;-60
2021/09/09 02:40:47;;;;;;;;;;;;;;;22.47;51.13;95519.38;1049062;28;1114;-59
2021/09/09 02:41:17;;;;;;;;;;;;;;;22.49;50.79;95521.72;1048481;28;2174;-57
2021/09/09 02:41:47;;;;;;;;;;;;;;;22.49;50.93;95516.44;1048173;28;2092;-60
2021/09/09 02:42:18;;;;;;;;;;;;;;;22.48;50.77;95517.53;1049307;28;1229;-60
2021/09/09 02:42:48;;;;;;;;;;;;;;;22.48;50.89;95513.00;1049088;28;1063;-58
2021/09/09 02:43:19;;;;;;;;;;;;;;;22.48;50.83;95510.38;1048843;28;1315;-60
2021/09/09 02:43:49;;;;;;;;;;;;;;;22.48;51.18;95514.88;1048908;28;1033;-60
2021/09/09 02:44:20;;;;;;;;;;;;;;;22.49;50.96;95516.44;1048832;28;1119;-58
2021/09/09 02:44:50;;;;;;;;;;;;;;;22.49;50.93;95516.44;1048958;28;954;-58
2021/09/09 02:45:20;;;;;;;;;;;;;;;22.48;50.86;95510.38;1049188;28;1914;-58